Skip Navigation

Christman Field Latest Observations

Switch to english unitsOther observation timesWeekly graphs

Date Time
MST
Temp
°C
RH
%
DewPt
°C
Wind
m/s
Dir
°
Gust
m/s
Dir
°
Press
hPa
Solar
W/m^2
Prec
mm
2017-07-27 07:25 18.3 77.4 14.3 1.2 207 1.8 175 847.59 253.9 0.00
2017-07-27 07:20 18.1 78.8 14.4 1.0 181 1.8 167 847.58 184.4 0.00
2017-07-27 07:15 18.0 77.8 14.0 1.1 150 1.9 164 847.58 164.7 0.00
2017-07-27 07:10 17.9 78.2 14.1 1.1 162 2.1 175 847.60 147.7 0.00
2017-07-27 07:05 18.0 77.8 14.0 1.6 125 2.3 145 847.57 134.5 0.00
2017-07-27 07:00 18.1 76.8 14.0 0.7 147 1.7 147 847.61 111.4 0.00
2017-07-27 06:55 18.5 75.3 14.1 1.0 89 1.7 103 847.62 112.4 0.00
2017-07-27 06:50 19.4 71.2 14.1 0.6 103 1.4 103 847.54 119.1 0.00
2017-07-27 06:45 19.8 69.9 14.2 0.0 93 0.0 135 847.46 249.2 0.00
2017-07-27 06:40 19.3 70.3 13.7 0.0 135 0.3 135 847.43 346.9 0.00
2017-07-27 06:35 18.8 70.7 13.4 0.4 135 1.1 132 847.38 293.6 0.00
2017-07-27 06:30 18.5 73.2 13.6 0.6 72 1.1 71 847.35 259.0 0.00
2017-07-27 06:25 18.4 73.5 13.6 0.5 93 1.0 93 847.30 233.6 0.00
2017-07-27 06:20 18.3 72.8 13.4 0.5 91 0.9 112 847.24 198.5 0.00
2017-07-27 06:15 18.0 73.7 13.2 0.4 81 0.7 81 847.22 183.6 0.00
2017-07-27 06:10 17.6 76.0 13.3 0.0 81 0.3 81 847.05 156.7 0.00
2017-07-27 06:05 17.1 78.4 13.3 0.8 81 1.2 64 847.02 146.3 0.00
2017-07-27 06:00 16.8 79.9 13.3 1.5 65 1.9 70 847.03 133.0 0.00
2017-07-27 05:55 16.6 80.1 13.1 1.1 60 1.6 79 847.02 118.3 0.00
2017-07-27 05:50 16.2 81.9 13.1 1.1 21 1.5 340 847.00 106.8 0.00
2017-07-27 05:45 15.8 83.3 13.0 2.0 340 2.4 337 846.87 94.4 0.00
2017-07-27 05:40 15.4 84.3 12.8 1.4 339 2.1 339 846.69 79.7 0.00
2017-07-27 05:35 15.3 84.4 12.7 1.2 9 1.5 354 846.57 66.3 0.00
2017-07-27 05:30 15.1 85.3 12.7 2.5 338 3.2 323 846.52 52.8 0.00
2017-07-27 05:25 14.7 86.0 12.3 3.4 323 3.7 324 846.42 40.8 0.00
2017-07-27 05:20 14.4 86.3 12.1 2.9 326 3.3 324 846.36 31.0 0.00
2017-07-27 05:15 14.3 86.7 12.1 2.1 314 2.9 312 846.40 22.3 0.00
2017-07-27 05:10 14.2 87.1 12.1 1.7 296 2.1 286 846.34 14.6 0.00
2017-07-27 05:05 14.3 87.2 12.2 2.8 290 3.3 305 846.26 8.9 0.00
2017-07-27 05:00 14.2 87.9 12.3 3.3 306 3.8 309 846.17 5.4 0.00